Tidworth, United Kingdom
Current Conditions -  °F | °C
As of 1:50 PM on Wednesday 28 Jan 2015 (Local Time) from EGDM Reporting Station
Few Clouds Few Clouds  
Wind Chill: 32°   Ceiling: Unl
Heat Index: 43°   Visibility: 6mi
Dew Point: 30°   Wind: 29mph
Humidity: 61%   Direction: 290°WNW
Pressure: 29.62"   Gusts: 40mph
Location:  51.23°N, 1.67°W
Report Text: EGDM 281350Z 29025G35KT 9999 FEW030 06/M01 Q1003 BLU NOSIG
Loading
Personal Weather Stations






























Interactive Weather Map New forecast layout! Learn more

10-Day Weather Forecast

Advertisements
Track Severe Weather on mobile